sensor_id;sensor_type;location;lat;lon;timestamp;pressure;altitude;pressure_sealevel;temperature;humidity
10518;BME280;5307;42.548;22.968;2023-01-28T00:00:54;93145.53;;;0.43;100.00
10518;BME280;5307;42.548;22.968;2023-01-28T00:03:22;93142.59;;;0.30;100.00
10518;BME280;5307;42.548;22.968;2023-01-28T00:05:48;93144.41;;;0.40;100.00
10518;BME280;5307;42.548;22.968;2023-01-28T00:08:15;93147.22;;;0.26;100.00
10518;BME280;5307;42.548;22.968;2023-01-28T00:10:42;93148.28;;;0.36;100.00
10518;BME280;5307;42.548;22.968;2023-01-28T00:13:11;93150.13;;;0.42;100.00
10518;BME280;5307;42.548;22.968;2023-01-28T00:15:40;93155.22;;;0.33;100.00
10518;BME280;5307;42.548;22.968;2023-01-28T00:18:07;93151.88;;;0.22;100.00
10518;BME280;5307;42.548;22.968;2023-01-28T00:20:34;93159.03;;;-0.06;100.00
10518;BME280;5307;42.548;22.968;2023-01-28T00:23:01;93151.81;;;0.29;100.00
10518;BME280;5307;42.548;22.968;2023-01-28T00:25:28;93164.59;;;0.18;100.00
10518;BME280;5307;42.548;22.968;2023-01-28T00:27:56;93158.88;;;0.12;100.00
10518;BME280;5307;42.548;22.968;2023-01-28T00:30:22;93165.00;;;0.13;100.00
10518;BME280;5307;42.548;22.968;2023-01-28T00:32:52;93155.41;;;0.15;100.00
10518;BME280;5307;42.548;22.968;2023-01-28T00:35:19;93168.19;;;-0.03;100.00
10518;BME280;5307;42.548;22.968;2023-01-28T00:37:46;93168.25;;;-0.07;100.00
10518;BME280;5307;42.548;22.968;2023-01-28T00:40:13;93170.75;;;0.11;100.00
10518;BME280;5307;42.548;22.968;2023-01-28T00:42:40;93173.78;;;0.17;100.00
10518;BME280;5307;42.548;22.968;2023-01-28T00:45:07;93176.31;;;-0.10;100.00
10518;BME280;5307;42.548;22.968;2023-01-28T00:47:34;93174.91;;;0.19;100.00
10518;BME280;5307;42.548;22.968;2023-01-28T00:50:03;93177.66;;;0.12;99.79
10518;BME280;5307;42.548;22.968;2023-01-28T00:52:30;93183.13;;;0.02;99.70
10518;BME280;5307;42.548;22.968;2023-01-28T00:54:57;93185.13;;;-0.10;100.00
10518;BME280;5307;42.548;22.968;2023-01-28T00:57:24;93185.75;;;0.09;100.00
10518;BME280;5307;42.548;22.968;2023-01-28T00:59:50;93191.84;;;0.13;99.66
10518;BME280;5307;42.548;22.968;2023-01-28T01:02:17;93190.31;;;0.12;99.72
10518;BME280;5307;42.548;22.968;2023-01-28T01:04:45;93190.06;;;-0.05;99.87
10518;BME280;5307;42.548;22.968;2023-01-28T01:07:21;93194.22;;;0.04;100.00
10518;BME280;5307;42.548;22.968;2023-01-28T01:09:59;93184.78;;;-0.15;99.82
10518;BME280;5307;42.548;22.968;2023-01-28T01:12:27;93200.44;;;-0.07;100.00
10518;BME280;5307;42.548;22.968;2023-01-28T01:14:55;93200.38;;;0.04;100.00
10518;BME280;5307;42.548;22.968;2023-01-28T01:17:21;93193.59;;;-0.15;100.00
10518;BME280;5307;42.548;22.968;2023-01-28T01:19:48;93191.19;;;0.02;100.00
10518;BME280;5307;42.548;22.968;2023-01-28T01:22:15;93203.50;;;-0.05;100.00
10518;BME280;5307;42.548;22.968;2023-01-28T01:24:43;93196.47;;;0.09;100.00
10518;BME280;5307;42.548;22.968;2023-01-28T01:27:10;93192.72;;;-0.01;100.00
10518;BME280;5307;42.548;22.968;2023-01-28T01:29:37;93184.31;;;-0.03;100.00
10518;BME280;5307;42.548;22.968;2023-01-28T01:32:04;93194.16;;;0.11;100.00
10518;BME280;5307;42.548;22.968;2023-01-28T01:34:31;93191.19;;;0.02;100.00
10518;BME280;5307;42.548;22.968;2023-01-28T01:36:58;93189.66;;;0.01;100.00
10518;BME280;5307;42.548;22.968;2023-01-28T01:39:25;93201.69;;;0.30;100.00
10518;BME280;5307;42.548;22.968;2023-01-28T01:41:53;93202.84;;;0.25;100.00
10518;BME280;5307;42.548;22.968;2023-01-28T01:44:57;93194.78;;;0.25;100.00
10518;BME280;5307;42.548;22.968;2023-01-28T01:47:30;93204.91;;;0.11;100.00
10518;BME280;5307;42.548;22.968;2023-01-28T01:49:59;93200.38;;;0.04;100.00
10518;BME280;5307;42.548;22.968;2023-01-28T01:52:30;93201.22;;;-0.10;100.00
10518;BME280;5307;42.548;22.968;2023-01-28T01:54:59;93202.69;;;-0.02;100.00
10518;BME280;5307;42.548;22.968;2023-01-28T01:57:31;93199.66;;;-0.04;100.00
10518;BME280;5307;42.548;22.968;2023-01-28T02:00:00;93204.97;;;0.04;100.00
10518;BME280;5307;42.548;22.968;2023-01-28T02:02:34;93204.09;;;0.17;100.00
10518;BME280;5307;42.548;22.968;2023-01-28T02:05:02;93209.06;;;0.19;100.00
10518;BME280;5307;42.548;22.968;2023-01-28T02:07:29;93215.13;;;-0.22;100.00
10518;BME280;5307;42.548;22.968;2023-01-28T02:09:56;93219.53;;;0.03;100.00
10518;BME280;5307;42.548;22.968;2023-01-28T02:12:26;93220.13;;;0.24;100.00
10518;BME280;5307;42.548;22.968;2023-01-28T02:14:59;93212.63;;;0.05;100.00
10518;BME280;5307;42.548;22.968;2023-01-28T02:17:28;93209.66;;;-0.08;100.00
10518;BME280;5307;42.548;22.968;2023-01-28T02:19:58;93215.75;;;-0.04;100.00
10518;BME280;5307;42.548;22.968;2023-01-28T02:25:47;93212.66;;;0.02;100.00
10518;BME280;5307;42.548;22.968;2023-01-28T02:28:23;93213.03;;;0.04;100.00
10518;BME280;5307;42.548;22.968;2023-01-28T02:30:56;93213.50;;;-0.09;100.00
10518;BME280;5307;42.548;22.968;2023-01-28T02:33:29;93218.69;;;0.13;100.00
10518;BME280;5307;42.548;22.968;2023-01-28T02:36:04;93228.53;;;0.26;100.00
10518;BME280;5307;42.548;22.968;2023-01-28T02:38:39;93221.78;;;0.08;100.00
10518;BME280;5307;42.548;22.968;2023-01-28T02:41:11;93223.59;;;0.21;100.00
10518;BME280;5307;42.548;22.968;2023-01-28T02:43:42;93228.00;;;0.01;100.00
10518;BME280;5307;42.548;22.968;2023-01-28T02:46:15;93227.13;;;0.11;100.00
10518;BME280;5307;42.548;22.968;2023-01-28T02:49:01;93225.59;;;0.10;100.00
10518;BME280;5307;42.548;22.968;2023-01-28T02:51:39;93218.78;;;0.02;100.00
10518;BME280;5307;42.548;22.968;2023-01-28T02:54:16;93220.59;;;0.16;100.00
10518;BME280;5307;42.548;22.968;2023-01-28T02:56:48;93224.72;;;0.24;100.00
10518;BME280;5307;42.548;22.968;2023-01-28T02:59:25;93233.91;;;0.26;100.00
10518;BME280;5307;42.548;22.968;2023-01-28T03:02:03;93222.59;;;0.05;100.00
10518;BME280;5307;42.548;22.968;2023-01-28T03:04:37;93224.09;;;0.09;100.00
10518;BME280;5307;42.548;22.968;2023-01-28T03:07:08;93229.44;;;0.09;100.00
10518;BME280;5307;42.548;22.968;2023-01-28T03:09:38;93232.41;;;0.22;100.00
10518;BME280;5307;42.548;22.968;2023-01-28T03:12:10;93230.22;;;0.10;100.00
10518;BME280;5307;42.548;22.968;2023-01-28T03:15:00;93241.75;;;0.07;100.00
10518;BME280;5307;42.548;22.968;2023-01-28T03:17:47;93235.66;;;-0.01;100.00
10518;BME280;5307;42.548;22.968;2023-01-28T03:20:38;93248.03;;;-0.18;100.00
10518;BME280;5307;42.548;22.968;2023-01-28T03:23:30;93242.63;;;-0.07;100.00
10518;BME280;5307;42.548;22.968;2023-01-28T03:26:18;93240.22;;;0.06;100.00
10518;BME280;5307;42.548;22.968;2023-01-28T03:29:07;93240.94;;;0.10;100.00
10518;BME280;5307;42.548;22.968;2023-01-28T03:31:55;93243.03;;;-0.16;100.00
10518;BME280;5307;42.548;22.968;2023-01-28T03:34:40;93244.94;;;-0.09;100.00
10518;BME280;5307;42.548;22.968;2023-01-28T03:37:24;93253.41;;;-0.18;100.00
10518;BME280;5307;42.548;22.968;2023-01-28T03:39:53;93258.69;;;0.00;100.00
10518;BME280;5307;42.548;22.968;2023-01-28T03:42:22;93252.06;;;0.12;100.00
10518;BME280;5307;42.548;22.968;2023-01-28T03:44:49;93246.50;;;-0.15;100.00
10518;BME280;5307;42.548;22.968;2023-01-28T03:47:22;93250.69;;;-0.11;100.00
10518;BME280;5307;42.548;22.968;2023-01-28T03:49:50;93248.06;;;-0.21;100.00
10518;BME280;5307;42.548;22.968;2023-01-28T03:52:20;93245.06;;;-0.27;100.00
10518;BME280;5307;42.548;22.968;2023-01-28T03:54:47;93250.06;;;-0.33;100.00
10518;BME280;5307;42.548;22.968;2023-01-28T03:57:14;93249.97;;;-0.18;100.00
10518;BME280;5307;42.548;22.968;2023-01-28T03:59:41;93257.41;;;-0.40;100.00
10518;BME280;5307;42.548;22.968;2023-01-28T04:02:09;93258.78;;;-0.18;100.00
10518;BME280;5307;42.548;22.968;2023-01-28T04:04:38;93250.81;;;-0.32;100.00
10518;BME280;5307;42.548;22.968;2023-01-28T04:07:06;93257.25;;;-0.19;100.00
10518;BME280;5307;42.548;22.968;2023-01-28T04:09:33;93258.47;;;-0.27;100.00
10518;BME280;5307;42.548;22.968;2023-01-28T04:12:01;93267.38;;;-0.41;100.00
10518;BME280;5307;42.548;22.968;2023-01-28T04:14:28;93258.88;;;-0.32;100.00
10518;BME280;5307;42.548;22.968;2023-01-28T04:16:55;93270.81;;;-0.40;100.00
10518;BME280;5307;42.548;22.968;2023-01-28T04:19:22;93266.97;;;-0.39;100.00
10518;BME280;5307;42.548;22.968;2023-01-28T04:21:51;93274.56;;;-0.27;100.00
10518;BME280;5307;42.548;22.968;2023-01-28T04:24:19;93272.22;;;-0.21;100.00
10518;BME280;5307;42.548;22.968;2023-01-28T04:26:46;93275.69;;;-0.24;100.00
10518;BME280;5307;42.548;22.968;2023-01-28T04:29:13;93283.38;;;-0.26;100.00
10518;BME280;5307;42.548;22.968;2023-01-28T04:31:40;93292.94;;;-0.29;100.00
10518;BME280;5307;42.548;22.968;2023-01-28T04:34:06;93292.19;;;-0.26;100.00
10518;BME280;5307;42.548;22.968;2023-01-28T04:36:34;93288.00;;;-0.34;100.00
10518;BME280;5307;42.548;22.968;2023-01-28T04:39:03;93301.78;;;-0.32;100.00
10518;BME280;5307;42.548;22.968;2023-01-28T04:41:30;93294.19;;;-0.41;100.00
10518;BME280;5307;42.548;22.968;2023-01-28T04:43:56;93294.09;;;-0.30;100.00
10518;BME280;5307;42.548;22.968;2023-01-28T04:46:23;93294.16;;;-0.37;100.00
10518;BME280;5307;42.548;22.968;2023-01-28T04:48:50;93307.94;;;-0.35;100.00
10518;BME280;5307;42.548;22.968;2023-01-28T04:51:17;93308.34;;;-0.44;100.00
10518;BME280;5307;42.548;22.968;2023-01-28T04:53:43;93308.00;;;-0.42;100.00
10518;BME280;5307;42.548;22.968;2023-01-28T04:56:12;93311.75;;;-0.33;100.00
10518;BME280;5307;42.548;22.968;2023-01-28T04:58:38;93312.53;;;-0.36;100.00
10518;BME280;5307;42.548;22.968;2023-01-28T05:01:05;93315.63;;;-0.44;100.00
10518;BME280;5307;42.548;22.968;2023-01-28T05:03:32;93320.22;;;-0.38;100.00
10518;BME280;5307;42.548;22.968;2023-01-28T05:06:00;93317.94;;;-0.46;100.00
10518;BME280;5307;42.548;22.968;2023-01-28T05:08:27;93317.56;;;-0.41;100.00
10518;BME280;5307;42.548;22.968;2023-01-28T05:10:54;93318.28;;;-0.34;100.00
10518;BME280;5307;42.548;22.968;2023-01-28T05:13:22;93334.34;;;-0.26;100.00
10518;BME280;5307;42.548;22.968;2023-01-28T05:15:50;93327.91;;;-0.47;100.00
10518;BME280;5307;42.548;22.968;2023-01-28T05:18:18;93336.31;;;-0.38;100.00
10518;BME280;5307;42.548;22.968;2023-01-28T05:20:45;93338.28;;;-0.52;100.00
10518;BME280;5307;42.548;22.968;2023-01-28T05:23:12;93342.53;;;-0.55;100.00
10518;BME280;5307;42.548;22.968;2023-01-28T05:25:39;93345.53;;;-0.46;100.00
10518;BME280;5307;42.548;22.968;2023-01-28T05:28:06;93341.63;;;-0.27;100.00
10518;BME280;5307;42.548;22.968;2023-01-28T05:30:36;93342.81;;;-0.35;100.00
10518;BME280;5307;42.548;22.968;2023-01-28T05:33:03;93349.75;;;-0.48;100.00
10518;BME280;5307;42.548;22.968;2023-01-28T05:35:30;93344.75;;;-0.43;100.00
10518;BME280;5307;42.548;22.968;2023-01-28T05:37:57;93350.88;;;-0.39;100.00
10518;BME280;5307;42.548;22.968;2023-01-28T05:40:23;93346.72;;;-0.57;100.00
10518;BME280;5307;42.548;22.968;2023-01-28T05:42:50;93357.03;;;-0.49;100.00
10518;BME280;5307;42.548;22.968;2023-01-28T05:45:17;93364.72;;;-0.58;100.00
10518;BME280;5307;42.548;22.968;2023-01-28T05:47:45;93364.72;;;-0.58;100.00
10518;BME280;5307;42.548;22.968;2023-01-28T05:50:13;93360.09;;;-0.47;100.00
10518;BME280;5307;42.548;22.968;2023-01-28T05:52:40;93365.44;;;-0.43;100.00
10518;BME280;5307;42.548;22.968;2023-01-28T05:55:08;93363.91;;;-0.44;100.00
10518;BME280;5307;42.548;22.968;2023-01-28T05:57:35;93369.19;;;-0.19;100.00
10518;BME280;5307;42.548;22.968;2023-01-28T06:00:03;93368.47;;;-0.34;100.00
10518;BME280;5307;42.548;22.968;2023-01-28T06:02:31;93367.72;;;-0.35;100.00
10518;BME280;5307;42.548;22.968;2023-01-28T06:04:59;93367.72;;;-0.38;100.00
10518;BME280;5307;42.548;22.968;2023-01-28T06:07:26;93376.84;;;-0.21;100.00
10518;BME280;5307;42.548;22.968;2023-01-28T06:09:53;93381.81;;;-0.13;100.00
10518;BME280;5307;42.548;22.968;2023-01-28T06:12:19;93377.59;;;-0.17;100.00
10518;BME280;5307;42.548;22.968;2023-01-28T06:14:46;93385.31;;;-0.23;100.00
10518;BME280;5307;42.548;22.968;2023-01-28T06:17:14;93386.09;;;-0.26;100.00
10518;BME280;5307;42.548;22.968;2023-01-28T06:19:41;93376.50;;;-0.27;100.00
10518;BME280;5307;42.548;22.968;2023-01-28T06:22:09;93382.31;;;-0.46;100.00
10518;BME280;5307;42.548;22.968;2023-01-28T06:24:36;93391.41;;;-0.19;100.00
10518;BME280;5307;42.548;22.968;2023-01-28T06:27:03;93391.72;;;-0.06;100.00
10518;BME280;5307;42.548;22.968;2023-01-28T06:29:31;93403.66;;;-0.14;100.00
10518;BME280;5307;42.548;22.968;2023-01-28T06:31:58;93399.41;;;-0.05;100.00
10518;BME280;5307;42.548;22.968;2023-01-28T06:34:24;93401.78;;;-0.21;100.00
10518;BME280;5307;42.548;22.968;2023-01-28T06:36:51;93411.38;;;-0.27;100.00
10518;BME280;5307;42.548;22.968;2023-01-28T06:39:20;93415.09;;;-0.03;100.00
10518;BME280;5307;42.548;22.968;2023-01-28T06:41:47;93415.16;;;-0.10;100.00
10518;BME280;5307;42.548;22.968;2023-01-28T06:44:14;93418.50;;;0.08;100.00
10518;BME280;5307;42.548;22.968;2023-01-28T06:46:40;93419.72;;;-0.07;100.00
10518;BME280;5307;42.548;22.968;2023-01-28T06:49:07;93422.84;;;-0.23;100.00
10518;BME280;5307;42.548;22.968;2023-01-28T06:51:34;93426.97;;;-0.01;100.00
10518;BME280;5307;42.548;22.968;2023-01-28T06:54:01;93428.91;;;0.03;100.00
10518;BME280;5307;42.548;22.968;2023-01-28T06:56:29;93440.41;;;-0.04;100.00
10518;BME280;5307;42.548;22.968;2023-01-28T06:58:56;93435.50;;;-0.20;100.00
10518;BME280;5307;42.548;22.968;2023-01-28T07:01:22;93436.25;;;-0.19;100.00
10518;BME280;5307;42.548;22.968;2023-01-28T07:03:49;93442.75;;;-0.10;100.00
10518;BME280;5307;42.548;22.968;2023-01-28T07:06:16;93444.34;;;-0.34;100.00
10518;BME280;5307;42.548;22.968;2023-01-28T07:08:43;93447.75;;;-0.12;100.00
10518;BME280;5307;42.548;22.968;2023-01-28T07:11:10;93453.47;;;-0.10;100.00
10518;BME280;5307;42.548;22.968;2023-01-28T07:13:38;93455.78;;;-0.12;100.00
10518;BME280;5307;42.548;22.968;2023-01-28T07:16:06;93453.53;;;-0.24;100.00
10518;BME280;5307;42.548;22.968;2023-01-28T07:18:36;93463.50;;;-0.24;100.00
10518;BME280;5307;42.548;22.968;2023-01-28T07:21:04;93458.16;;;-0.35;100.00
10518;BME280;5307;42.548;22.968;2023-01-28T07:23:30;93475.72;;;-0.16;100.00
10518;BME280;5307;42.548;22.968;2023-01-28T07:26:00;93458.91;;;-0.24;100.00
10518;BME280;5307;42.548;22.968;2023-01-28T07:28:27;93472.63;;;-0.04;100.00
10518;BME280;5307;42.548;22.968;2023-01-28T07:30:55;93478.00;;;-0.08;100.00
10518;BME280;5307;42.548;22.968;2023-01-28T07:33:23;93483.34;;;0.03;100.00
10518;BME280;5307;42.548;22.968;2023-01-28T07:35:50;93481.38;;;0.14;100.00
10518;BME280;5307;42.548;22.968;2023-01-28T07:38:17;93482.66;;;-0.22;100.00
10518;BME280;5307;42.548;22.968;2023-01-28T07:40:45;93481.09;;;-0.20;100.00
10518;BME280;5307;42.548;22.968;2023-01-28T07:43:12;93478.78;;;-0.07;100.00
10518;BME280;5307;42.548;22.968;2023-01-28T07:45:39;93479.56;;;-0.14;100.00
10518;BME280;5307;42.548;22.968;2023-01-28T07:48:10;93487.19;;;-0.05;100.00
10518;BME280;5307;42.548;22.968;2023-01-28T07:50:38;93481.13;;;-0.34;100.00
10518;BME280;5307;42.548;22.968;2023-01-28T07:53:06;93485.69;;;-0.20;100.00
10518;BME280;5307;42.548;22.968;2023-01-28T07:55:33;93496.34;;;0.12;100.00
10518;BME280;5307;42.548;22.968;2023-01-28T07:58:02;93496.81;;;-0.29;100.00
10518;BME280;5307;42.548;22.968;2023-01-28T08:00:31;93501.78;;;-0.10;100.00
10518;BME280;5307;42.548;22.968;2023-01-28T08:02:59;93501.38;;;0.03;100.00
10518;BME280;5307;42.548;22.968;2023-01-28T08:05:35;93505.91;;;0.13;100.00
10518;BME280;5307;42.548;22.968;2023-01-28T08:08:05;93508.28;;;-0.04;100.00
10518;BME280;5307;42.548;22.968;2023-01-28T08:10:32;93507.53;;;-0.15;100.00
10518;BME280;5307;42.548;22.968;2023-01-28T08:12:59;93510.16;;;0.10;100.00
10518;BME280;5307;42.548;22.968;2023-01-28T08:15:26;93516.28;;;0.11;100.00
10518;BME280;5307;42.548;22.968;2023-01-28T08:17:53;93512.41;;;0.22;100.00
10518;BME280;5307;42.548;22.968;2023-01-28T08:20:21;93507.41;;;0.24;100.00
10518;BME280;5307;42.548;22.968;2023-01-28T08:22:49;93517.81;;;0.15;100.00
10518;BME280;5307;42.548;22.968;2023-01-28T08:25:16;93518.59;;;0.09;100.00
10518;BME280;5307;42.548;22.968;2023-01-28T08:27:43;93518.19;;;0.10;100.00
10518;BME280;5307;42.548;22.968;2023-01-28T08:30:10;93525.38;;;0.38;100.00
10518;BME280;5307;42.548;22.968;2023-01-28T08:32:38;93525.88;;;0.12;100.00
10518;BME280;5307;42.548;22.968;2023-01-28T08:35:05;93529.72;;;0.14;100.00
10518;BME280;5307;42.548;22.968;2023-01-28T08:37:32;93514.00;;;0.06;100.00
10518;BME280;5307;42.548;22.968;2023-01-28T08:40:00;93525.38;;;0.45;100.00
10518;BME280;5307;42.548;22.968;2023-01-28T08:42:27;93530.00;;;0.34;100.00
10518;BME280;5307;42.548;22.968;2023-01-28T08:44:53;93525.88;;;0.12;100.00
10518;BME280;5307;42.548;22.968;2023-01-28T08:47:20;93528.06;;;0.38;100.00
10518;BME280;5307;42.548;22.968;2023-01-28T08:49:47;93526.47;;;0.58;100.00
10518;BME280;5307;42.548;22.968;2023-01-28T08:52:14;93529.69;;;0.18;100.00
10518;BME280;5307;42.548;22.968;2023-01-28T08:54:40;93524.56;;;0.52;100.00
10518;BME280;5307;42.548;22.968;2023-01-28T08:57:08;93525.38;;;0.45;100.00
10518;BME280;5307;42.548;22.968;2023-01-28T08:59:35;93525.38;;;0.45;100.00
10518;BME280;5307;42.548;22.968;2023-01-28T09:02:05;93530.31;;;0.54;100.00
10518;BME280;5307;42.548;22.968;2023-01-28T09:04:32;93523.84;;;0.41;100.00
10518;BME280;5307;42.548;22.968;2023-01-28T09:06:58;93527.56;;;0.72;100.00
10518;BME280;5307;42.548;22.968;2023-01-28T09:09:26;93526.00;;;0.74;100.00
10518;BME280;5307;42.548;22.968;2023-01-28T09:11:52;93525.22;;;0.70;99.38
10518;BME280;5307;42.548;22.968;2023-01-28T09:24:22;93526.31;;;0.87;98.35
10518;BME280;5307;42.548;22.968;2023-01-28T09:26:49;93528.16;;;0.97;97.49
10518;BME280;5307;42.548;22.968;2023-01-28T09:29:16;93521.19;;;1.07;97.03
10518;BME280;5307;42.548;22.968;2023-01-28T09:31:43;93517.44;;;0.90;96.44
10518;BME280;5307;42.548;22.968;2023-01-28T09:34:09;93515.78;;;1.10;97.04
10518;BME280;5307;42.548;22.968;2023-01-28T09:36:36;93511.22;;;1.04;96.46
10518;BME280;5307;42.548;22.968;2023-01-28T09:39:04;93517.34;;;1.04;95.34
10518;BME280;5307;42.548;22.968;2023-01-28T09:41:43;93515.31;;;1.23;96.00
10518;BME280;5307;42.548;22.968;2023-01-28T09:44:29;93518.78;;;1.19;96.05
10518;BME280;5307;42.548;22.968;2023-01-28T09:47:00;93519.28;;;1.52;96.16
10518;BME280;5307;42.548;22.968;2023-01-28T09:49:32;93512.31;;;1.13;94.26
10518;BME280;5307;42.548;22.968;2023-01-28T09:52:00;93513.44;;;1.12;94.80
10518;BME280;5307;42.548;22.968;2023-01-28T09:54:33;93515.72;;;1.17;96.29
10518;BME280;5307;42.548;22.968;2023-01-28T09:57:05;93518.25;;;1.39;95.49
10518;BME280;5307;42.548;22.968;2023-01-28T09:59:34;93519.97;;;1.11;95.36
10518;BME280;5307;42.548;22.968;2023-01-28T10:02:10;93510.66;;;1.27;94.34
10518;BME280;5307;42.548;22.968;2023-01-28T10:04:49;93517.63;;;1.21;94.22
10518;BME280;5307;42.548;22.968;2023-01-28T10:07:27;93513.34;;;1.27;94.32
10518;BME280;5307;42.548;22.968;2023-01-28T10:10:00;93512.31;;;1.13;94.28
10518;BME280;5307;42.548;22.968;2023-01-28T10:12:54;93503.66;;;0.84;94.64
10518;BME280;5307;42.548;22.968;2023-01-28T10:15:55;93503.38;;;1.27;96.72
10518;BME280;5307;42.548;22.968;2023-01-28T10:18:32;93505.56;;;1.39;95.87
10518;BME280;5307;42.548;22.968;2023-01-28T10:21:06;93501.84;;;1.23;95.71
10518;BME280;5307;42.548;22.968;2023-01-28T10:23:40;93498.44;;;1.63;95.49
10518;BME280;5307;42.548;22.968;2023-01-28T10:26:21;93502.03;;;1.91;95.87
10518;BME280;5307;42.548;22.968;2023-01-28T10:28:53;93501.78;;;1.33;94.62
10518;BME280;5307;42.548;22.968;2023-01-28T10:31:22;93503.25;;;1.41;94.83
10518;BME280;5307;42.548;22.968;2023-01-28T10:33:49;93503.00;;;1.66;93.71
10518;BME280;5307;42.548;22.968;2023-01-28T10:36:16;93497.72;;;1.59;94.02
10518;BME280;5307;42.548;22.968;2023-01-28T10:38:43;93504.59;;;1.64;94.44
10518;BME280;5307;42.548;22.968;2023-01-28T10:41:15;93516.03;;;1.27;94.98
10518;BME280;5307;42.548;22.968;2023-01-28T10:43:46;93498.75;;;1.24;95.98
10518;BME280;5307;42.548;22.968;2023-01-28T10:46:18;93512.56;;;1.30;95.67
10518;BME280;5307;42.548;22.968;2023-01-28T10:48:54;93502.78;;;1.50;95.78
10518;BME280;5307;42.548;22.968;2023-01-28T10:51:33;93509.03;;;1.36;95.37
10518;BME280;5307;42.548;22.968;2023-01-28T10:54:01;93496.03;;;1.31;95.34
10518;BME280;5307;42.548;22.968;2023-01-28T10:56:29;93501.91;;;1.15;95.35
10518;BME280;5307;42.548;22.968;2023-01-28T10:58:59;93496.72;;;1.39;95.30
10518;BME280;5307;42.548;22.968;2023-01-28T11:01:43;93499.41;;;1.39;95.41
10518;BME280;5307;42.548;22.968;2023-01-28T11:04:20;93493.72;;;1.74;94.85
10518;BME280;5307;42.548;22.968;2023-01-28T11:06:55;93479.41;;;1.85;94.98
10518;BME280;5307;42.548;22.968;2023-01-28T11:09:24;93493.94;;;1.49;93.28
10518;BME280;5307;42.548;22.968;2023-01-28T11:11:51;93489.63;;;1.97;92.91
10518;BME280;5307;42.548;22.968;2023-01-28T11:14:23;93487.50;;;1.40;92.47
10518;BME280;5307;42.548;22.968;2023-01-28T11:16:53;93484.31;;;1.56;91.98
10518;BME280;5307;42.548;22.968;2023-01-28T11:19:26;93492.31;;;1.97;91.63
10518;BME280;5307;42.548;22.968;2023-01-28T11:21:55;93483.75;;;1.71;90.63
10518;BME280;5307;42.548;22.968;2023-01-28T11:24:26;93483.31;;;2.11;91.51
10518;BME280;5307;42.548;22.968;2023-01-28T11:26:56;93482.19;;;2.12;90.43
10518;BME280;5307;42.548;22.968;2023-01-28T11:29:26;93474.94;;;2.66;89.82
10518;BME280;5307;42.548;22.968;2023-01-28T11:31:57;93479.59;;;2.65;88.28
10518;BME280;5307;42.548;22.968;2023-01-28T11:34:28;93469.72;;;3.09;87.86
10518;BME280;5307;42.548;22.968;2023-01-28T11:37:01;93476.78;;;2.46;86.57
10518;BME280;5307;42.548;22.968;2023-01-28T11:39:30;93473.00;;;2.70;87.86
10518;BME280;5307;42.548;22.968;2023-01-28T11:42:11;93471.69;;;2.21;87.57
10518;BME280;5307;42.548;22.968;2023-01-28T11:44:39;93475.75;;;2.02;88.14
10518;BME280;5307;42.548;22.968;2023-01-28T11:47:26;93478.88;;;1.97;89.33
10518;BME280;5307;42.548;22.968;2023-01-28T11:50:07;93478.63;;;2.18;89.50
10518;BME280;5307;42.548;22.968;2023-01-28T11:52:42;93475.72;;;2.66;88.70
10518;BME280;5307;42.548;22.968;2023-01-28T11:55:25;93465.13;;;2.22;88.93
10518;BME280;5307;42.548;22.968;2023-01-28T11:58:01;93468.34;;;2.09;88.65
10518;BME280;5307;42.548;22.968;2023-01-28T12:00:40;93462.16;;;2.13;88.96
10518;BME280;5307;42.548;22.968;2023-01-28T12:03:26;93471.31;;;1.47;89.31
10518;BME280;5307;42.548;22.968;2023-01-28T12:06:04;93478.94;;;1.52;90.66
10518;BME280;5307;42.548;22.968;2023-01-28T12:08:42;93471.19;;;1.99;90.96
10518;BME280;5307;42.548;22.968;2023-01-28T12:11:23;93468.25;;;1.83;91.17
10518;BME280;5307;42.548;22.968;2023-01-28T12:14:15;93471.03;;;1.75;91.93
10518;BME280;5307;42.548;22.968;2023-01-28T12:16:57;93471.94;;;1.99;92.39
10518;BME280;5307;42.548;22.968;2023-01-28T12:19:48;93471.31;;;1.85;92.16
10518;BME280;5307;42.548;22.968;2023-01-28T12:22:28;93470.84;;;1.52;92.16
10518;BME280;5307;42.548;22.968;2023-01-28T12:25:15;93472.00;;;1.92;92.47
10518;BME280;5307;42.548;22.968;2023-01-28T12:27:51;93471.31;;;1.85;92.29
10518;BME280;5307;42.548;22.968;2023-01-28T12:30:26;93468.19;;;1.90;92.49
10518;BME280;5307;42.548;22.968;2023-01-28T12:33:05;93473.06;;;1.64;93.03
10518;BME280;5307;42.548;22.968;2023-01-28T12:35:48;93482.03;;;1.51;93.25
10518;BME280;5307;42.548;22.968;2023-01-28T12:38:24;93483.28;;;1.39;93.59
10518;BME280;5307;42.548;22.968;2023-01-28T12:40:58;93466.25;;;1.53;93.33
10518;BME280;5307;42.548;22.968;2023-01-28T12:43:42;93474.44;;;1.38;93.08
10518;BME280;5307;42.548;22.968;2023-01-28T12:46:16;93477.41;;;1.06;93.05
10518;BME280;5307;42.548;22.968;2023-01-28T12:48:47;93486.03;;;1.32;93.90
10518;BME280;5307;42.548;22.968;2023-01-28T12:51:21;93483.56;;;1.03;93.45
10518;BME280;5307;42.548;22.968;2023-01-28T12:53:53;93491.78;;;1.34;93.82
10518;BME280;5307;42.548;22.968;2023-01-28T12:56:23;93486.31;;;1.44;93.30
10518;BME280;5307;42.548;22.968;2023-01-28T12:58:55;93481.66;;;1.48;94.58
10518;BME280;5307;42.548;22.968;2023-01-28T13:01:27;93500.28;;;1.29;94.65
10518;BME280;5307;42.548;22.968;2023-01-28T13:04:00;93501.56;;;1.58;94.58
10518;BME280;5307;42.548;22.968;2023-01-28T13:06:34;93494.59;;;1.64;94.19
10518;BME280;5307;42.548;22.968;2023-01-28T13:09:12;93497.59;;;1.29;93.28
10518;BME280;5307;42.548;22.968;2023-01-28T13:11:41;93504.72;;;1.49;94.30
10518;BME280;5307;42.548;22.968;2023-01-28T13:14:10;93515.19;;;1.37;94.38
10518;BME280;5307;42.548;22.968;2023-01-28T13:16:38;93505.59;;;1.36;94.70
10518;BME280;5307;42.548;22.968;2023-01-28T13:19:07;93516.94;;;1.58;94.48
10518;BME280;5307;42.548;22.968;2023-01-28T13:21:35;93510.06;;;1.53;94.96
10518;BME280;5307;42.548;22.968;2023-01-28T13:24:16;93522.59;;;1.22;94.69
10518;BME280;5307;42.548;22.968;2023-01-28T13:26:45;93510.16;;;1.39;95.39
10518;BME280;5307;42.548;22.968;2023-01-28T13:29:27;93526.38;;;1.32;95.27
10518;BME280;5307;42.548;22.968;2023-01-28T13:31:56;93529.44;;;1.34;95.96